Time;durP1;ratioP1;P1;durP2;ratioP2;P2;SDS_P1;SDS_P2;PMS_P1;PMS_P2;Temp;Humidity;BMP_temperature;BMP_pressure;BME280_temperature;BME280_humidity;BME280_pressure;Samples;Min_cycle;Max_cycle;Signal;HPM_P1;HPM_P2
2023/05/01 00:02:23;;;;;;;3.28;1.80;;;;;;;12.06;81.73;101748.41;5131017;27;20075;-37
2023/05/01 00:04:48;;;;;;;3.47;1.53;;;;;;;12.05;81.61;101750.28;5131252;27;20027;-37
2023/05/01 00:07:15;;;;;;;4.00;1.50;;;;;;;12.02;81.71;101748.00;5130521;27;20192;-37
2023/05/01 00:09:40;;;;;;;3.30;1.70;;;;;;;11.95;81.35;101739.06;5131647;27;20251;-37
2023/05/01 00:12:06;;;;;;;4.00;1.73;;;;;;;12.04;81.55;101735.06;5122262;27;20064;-37
2023/05/01 00:14:31;;;;;;;2.63;1.63;;;;;;;11.98;80.96;101735.94;5117883;28;20030;-37
2023/05/01 00:16:56;;;;;;;3.57;1.97;;;;;;;11.96;81.90;101729.09;5116955;28;20034;-37
2023/05/01 00:19:22;;;;;;;2.80;1.63;;;;;;;11.98;82.78;101725.09;5116918;28;20023;-37
2023/05/01 00:21:50;;;;;;;3.17;1.57;;;;;;;11.88;81.27;101716.59;5117534;27;20058;-37
2023/05/01 00:24:15;;;;;;;4.00;2.13;;;;;;;11.82;81.17;101712.91;5116738;28;20035;-37
2023/05/01 00:26:41;;;;;;;3.00;1.55;;;;;;;11.92;80.91;101723.25;5117067;28;20019;-37
2023/05/01 00:29:06;;;;;;;3.42;1.63;;;;;;;11.95;81.46;101716.56;5115220;28;20367;-37
2023/05/01 00:31:32;;;;;;;3.03;1.65;;;;;;;11.91;81.25;101718.91;5116751;28;20132;-37
2023/05/01 00:33:57;;;;;;;5.33;1.70;;;;;;;11.74;81.44;101696.03;5115951;28;20016;-37
2023/05/01 00:36:22;;;;;;;3.30;1.83;;;;;;;11.82;81.56;101712.06;5116651;28;20046;-37
2023/05/01 00:38:48;;;;;;;3.53;1.70;;;;;;;11.89;82.95;101710.13;5116295;28;20348;-37
2023/05/01 00:41:13;;;;;;;3.03;1.50;;;;;;;11.92;82.48;101700.75;5117283;28;20027;-37
2023/05/01 00:43:39;;;;;;;3.92;1.90;;;;;;;11.88;82.42;101711.19;5116174;28;20452;-37
2023/05/01 00:46:05;;;;;;;5.10;1.92;;;;;;;11.81;81.90;101703.09;5116118;28;20115;-37
2023/05/01 00:48:30;;;;;;;2.67;1.65;;;;;;;11.86;83.02;101702.47;5116298;28;20020;-37
2023/05/01 00:50:57;;;;;;;3.30;1.60;;;;;;;11.92;83.23;101700.75;5116343;28;20031;-37
2023/05/01 00:53:25;;;;;;;3.55;1.70;;;;;;;11.91;82.18;101699.06;5116198;28;20456;-37
2023/05/01 00:55:50;;;;;;;2.60;1.70;;;;;;;11.90;82.45;101686.56;5116496;28;20024;-37
2023/05/01 00:58:16;;;;;;;4.15;1.70;;;;;;;11.92;82.79;101684.50;5116116;28;20336;-37
2023/05/01 01:00:42;;;;;;;3.63;1.80;;;;;;;11.91;82.55;101683.66;5115893;28;20102;-37
2023/05/01 01:03:07;;;;;;;5.20;1.77;;;;;;;11.83;81.88;101679.31;5115776;28;20034;-37
2023/05/01 01:05:37;;;;;;;2.65;1.60;;;;;;;11.79;83.34;101677.25;5116149;28;20030;-37
2023/05/01 01:08:18;;;;;;;3.25;1.73;;;;;;;11.85;82.83;101677.22;5115691;28;20467;-37
2023/05/01 01:11:11;;;;;;;4.28;1.95;;;;;;;11.86;82.73;101672.66;5116214;28;20453;-37
2023/05/01 01:13:50;;;;;;;2.70;1.60;;;;;;;11.85;82.77;101674.50;5116332;28;20343;-37
2023/05/01 01:16:36;;;;;;;5.20;2.20;;;;;;;11.81;83.01;101675.97;5116407;28;20027;-37
2023/05/01 01:19:01;;;;;;;3.00;1.65;;;;;;;11.78;82.64;101667.44;5115822;28;20110;-37
2023/05/01 01:21:41;;;;;;;4.97;2.13;;;;;;;11.74;83.32;101668.94;5115648;28;20440;-37
2023/05/01 01:24:35;;;;;;;5.68;2.30;;;;;;;11.74;83.44;101663.50;5114992;27;20482;-37
2023/05/01 01:27:28;;;;;;;2.67;1.85;;;;;;;11.79;83.70;101660.97;5116211;28;20015;-37
2023/05/01 01:30:29;;;;;;;4.88;1.98;;;;;;;11.69;83.65;101657.94;5116208;28;20024;-37
2023/05/01 01:33:16;;;;;;;4.10;1.92;;;;;;;11.67;83.82;101649.19;5116093;28;20387;-37
2023/05/01 01:35:45;;;;;;;;;;;;;;;11.70;83.33;101646.03;5116436;28;20024;-37
2023/05/01 01:38:19;;;;;;;4.22;1.85;;;;;;;11.55;84.33;101641.75;5115086;28;20002;-37
2023/05/01 01:41:08;;;;;;;3.20;1.90;;;;;;;11.48;84.59;101632.03;5115282;28;20176;-37
2023/05/01 01:43:41;;;;;;;3.63;2.00;;;;;;;11.44;84.98;101622.66;5115063;28;20460;-37
2023/05/01 01:46:09;;;;;;;3.45;1.77;;;;;;;11.53;84.87;101626.78;5115564;28;20122;-37
2023/05/01 01:48:39;;;;;;;3.42;1.85;;;;;;;11.45;85.58;101627.84;5115761;28;20031;-37
2023/05/01 01:51:10;;;;;;;4.55;2.20;;;;;;;11.44;85.79;101628.91;5115142;28;20052;-37
2023/05/01 01:53:37;;;;;;;6.00;2.45;;;;;;;11.39;86.37;101623.31;5115892;28;20073;-37
2023/05/01 01:56:06;;;;;;;4.00;2.00;;;;;;;11.32;86.59;101614.38;5115623;28;20024;-37
2023/05/01 01:58:32;;;;;;;4.88;1.90;;;;;;;11.27;87.17;101611.50;5114954;28;20042;-37
2023/05/01 02:00:58;;;;;;;5.72;2.22;;;;;;;11.28;87.58;101618.59;5114676;28;20391;-37
2023/05/01 02:03:25;;;;;;;3.90;2.30;;;;;;;11.23;86.61;101607.59;5115536;28;20031;-37
2023/05/01 02:05:53;;;;;;;3.80;2.10;;;;;;;11.24;86.97;101611.94;5114866;28;20111;-37
2023/05/01 02:08:20;;;;;;;5.22;2.25;;;;;;;11.22;86.99;101608.59;5115312;28;20015;-37
2023/05/01 02:10:47;;;;;;;5.05;2.17;;;;;;;11.25;87.00;101609.00;5115315;28;20019;-37
2023/05/01 02:13:14;;;;;;;4.10;2.00;;;;;;;11.17;87.64;101586.78;5114398;28;20414;-37
2023/05/01 02:15:40;;;;;;;4.05;2.25;;;;;;;11.18;87.61;101596.59;5115281;28;20351;-37
2023/05/01 02:18:06;;;;;;;6.07;2.05;;;;;;;11.11;87.52;101574.13;5114899;28;20102;-37
2023/05/01 02:20:32;;;;;;;3.50;2.03;;;;;;;11.24;87.43;101595.72;5114621;28;20115;-37
2023/05/01 02:22:58;;;;;;;3.42;2.03;;;;;;;11.18;87.40;101592.00;5115324;27;20016;-37
2023/05/01 02:25:24;;;;;;;;;;;;;;;11.28;86.55;101595.06;5115835;28;20023;-37
2023/05/01 02:27:56;;;;;;;6.35;2.08;;;;;;;11.16;87.85;101588.66;5114472;28;19918;-37
2023/05/01 02:30:21;;;;;;;5.43;2.65;;;;;;;11.23;88.28;101592.16;5115230;28;20448;-37
2023/05/01 02:32:47;;;;;;;3.20;2.00;;;;;;;11.31;88.66;101586.47;5114897;28;20054;-37
2023/05/01 02:35:12;;;;;;;6.00;2.03;;;;;;;11.30;87.84;101584.00;5114180;28;20020;-37
2023/05/01 02:37:38;;;;;;;3.77;2.43;;;;;;;11.27;87.99;101582.56;5114240;28;20272;-37
2023/05/01 02:40:06;;;;;;;4.25;2.55;;;;;;;11.24;88.07;101574.88;5114542;28;20016;-37
2023/05/01 02:42:34;;;;;;;3.42;2.30;;;;;;;11.13;88.49;101567.44;5114792;28;20020;-37
2023/05/01 02:45:03;;;;;;;3.05;1.92;;;;;;;11.09;88.72;101561.63;5114829;28;20020;-37
2023/05/01 02:47:31;;;;;;;5.13;2.40;;;;;;;11.19;88.38;101563.03;5113956;28;20076;-37
2023/05/01 02:49:59;;;;;;;4.35;2.20;;;;;;;11.16;88.92;101564.28;5114471;28;20024;-37
2023/05/01 02:52:24;;;;;;;7.20;2.60;;;;;;;11.07;89.16;101561.00;5113908;28;20035;-37
2023/05/01 02:54:50;;;;;;;2.67;2.15;;;;;;;11.03;89.65;101556.25;5114052;28;20028;-37
2023/05/01 02:57:16;;;;;;;5.97;2.50;;;;;;;11.05;89.88;101551.47;5114407;28;20019;-37
2023/05/01 02:59:42;;;;;;;4.03;2.50;;;;;;;10.99;89.53;101547.75;5113937;28;20030;-37
2023/05/01 03:02:07;;;;;;;4.82;2.35;;;;;;;10.87;90.51;101529.69;5114343;28;20032;-37
2023/05/01 03:04:33;;;;;;;3.45;2.28;;;;;;;10.80;89.55;101529.72;5114320;28;20030;-37
2023/05/01 03:06:58;;;;;;;4.28;2.20;;;;;;;10.90;90.09;101549.03;5114275;28;20039;-37
2023/05/01 03:09:23;;;;;;;5.33;2.23;;;;;;;10.93;89.65;101540.50;5113690;28;20140;-37
2023/05/01 03:11:49;;;;;;;4.27;2.30;;;;;;;10.95;89.60;101549.22;5114242;28;20593;-37
2023/05/01 03:14:14;;;;;;;6.23;2.73;;;;;;;10.92;89.81;101540.69;5114703;28;20077;-37
2023/05/01 03:16:40;;;;;;;5.30;2.40;;;;;;;10.87;89.88;101537.81;5113991;28;20136;-37
2023/05/01 03:19:06;;;;;;;5.70;2.65;;;;;;;10.81;90.58;101539.50;5114185;28;20269;-37
2023/05/01 03:21:31;;;;;;;6.82;3.22;;;;;;;10.74;90.85;101527.91;5113951;28;20031;-37
2023/05/01 03:23:57;;;;;;;5.45;2.85;;;;;;;10.74;90.25;101519.78;5114674;28;20016;-37
2023/05/01 03:26:22;;;;;;;3.95;2.72;;;;;;;10.70;92.09;101529.38;5114209;28;20019;-37
2023/05/01 03:28:48;;;;;;;5.88;2.60;;;;;;;10.69;91.87;101520.44;5114354;28;20015;-37
2023/05/01 03:31:13;;;;;;;6.97;2.77;;;;;;;10.65;92.89;101519.19;5113827;28;20463;-37
2023/05/01 03:33:39;;;;;;;5.68;2.60;;;;;;;10.58;92.92;101510.25;5113754;28;20785;-37
2023/05/01 03:36:05;;;;;;;4.10;2.60;;;;;;;10.57;92.62;101514.84;5113617;28;20031;-37
2023/05/01 03:38:31;;;;;;;4.20;2.50;;;;;;;10.64;92.96;101512.13;5113800;28;20209;-37
2023/05/01 03:40:57;;;;;;;3.53;2.20;;;;;;;10.65;93.23;101513.78;5113993;28;20046;-40
2023/05/01 03:43:24;;;;;;;6.22;2.50;;;;;;;10.60;92.49;101502.78;5113694;28;20400;-37
2023/05/01 03:45:50;;;;;;;7.10;2.97;;;;;;;10.57;92.63;101498.63;5113678;28;20110;-37
2023/05/01 03:48:16;;;;;;;;;;;;;;;10.75;91.19;101511.44;5117442;28;20023;-37
2023/05/01 03:50:42;;;;;;;4.88;2.28;;;;;;;10.69;93.29;101511.47;5117225;28;19911;-37
2023/05/01 03:53:07;;;;;;;6.07;2.90;;;;;;;10.60;93.02;101502.78;5117484;28;20034;-37
2023/05/01 03:55:33;;;;;;;3.75;2.50;;;;;;;10.57;93.59;101503.19;5117122;28;20048;-37
2023/05/01 03:57:58;;;;;;;7.93;3.28;;;;;;;10.52;94.04;101500.31;5117400;28;20031;-37
2023/05/01 04:00:24;;;;;;;4.87;2.90;;;;;;;10.41;94.52;101491.00;5116917;28;20016;-37
2023/05/01 04:02:49;;;;;;;4.60;2.53;;;;;;;10.46;94.12;101485.78;5117521;28;20039;-37
2023/05/01 04:05:14;;;;;;;4.27;2.73;;;;;;;10.55;94.34;101494.47;5117529;28;20035;-37
2023/05/01 04:07:40;;;;;;;6.03;2.58;;;;;;;10.55;94.05;101499.91;5117705;28;20028;-37
2023/05/01 04:10:08;;;;;;;3.90;2.65;;;;;;;10.60;94.30;101496.53;5117412;28;20389;-37
2023/05/01 04:12:33;;;;;;;4.90;2.60;;;;;;;10.58;93.33;101500.28;5117886;28;20019;-37
2023/05/01 04:14:59;;;;;;;5.23;2.57;;;;;;;10.51;93.80;101482.44;5117030;28;20028;-37
2023/05/01 04:17:24;;;;;;;5.97;2.50;;;;;;;10.51;94.51;101494.06;5116927;28;20261;-37
2023/05/01 04:19:49;;;;;;;3.97;2.70;;;;;;;10.41;94.64;101482.88;5117166;28;20023;-37
2023/05/01 04:22:15;;;;;;;6.45;2.67;;;;;;;10.53;95.72;101491.97;5116918;28;20601;-37
2023/05/01 04:24:41;;;;;;;5.93;2.85;;;;;;;10.56;94.86;101491.56;5117096;28;20111;-37
2023/05/01 04:27:06;;;;;;;6.35;3.28;;;;;;;10.54;95.45;101482.84;5116846;28;20356;-37
2023/05/01 04:29:32;;;;;;;4.15;2.97;;;;;;;10.63;94.99;101485.28;5116481;28;20047;-37
2023/05/01 04:31:57;;;;;;;6.50;3.38;;;;;;;10.64;93.94;101489.63;5116751;28;20500;-37
2023/05/01 04:34:22;;;;;;;5.20;2.63;;;;;;;10.63;93.88;101487.97;5116411;28;20030;-37
2023/05/01 04:36:48;;;;;;;3.33;2.80;;;;;;;10.60;94.34;101483.84;5116356;28;20047;-37
2023/05/01 04:39:13;;;;;;;4.37;2.40;;;;;;;10.54;94.95;101490.09;5116609;28;20628;-37
2023/05/01 04:41:39;;;;;;;5.53;2.65;;;;;;;10.49;94.81;101484.50;5117281;28;20022;-37
2023/05/01 04:44:04;;;;;;;4.97;2.67;;;;;;;10.60;93.87;101489.25;5116477;28;20023;-37
2023/05/01 04:46:30;;;;;;;4.70;2.67;;;;;;;10.62;94.22;101481.75;5116480;28;20019;-37
2023/05/01 04:48:55;;;;;;;5.38;3.10;;;;;;;10.65;93.20;101494.84;5116369;28;20023;-37
2023/05/01 04:51:21;;;;;;;5.90;3.03;;;;;;;10.63;95.03;101491.50;5116452;28;20028;-37
2023/05/01 04:53:47;;;;;;;5.15;3.00;;;;;;;10.69;93.23;101498.78;5116242;28;20107;-37
2023/05/01 04:56:12;;;;;;;5.57;2.92;;;;;;;10.66;93.91;101498.38;5116851;28;20055;-37
2023/05/01 04:58:37;;;;;;;4.23;2.90;;;;;;;10.71;93.48;101504.81;5116030;28;20020;-37
2023/05/01 05:01:03;;;;;;;4.90;3.03;;;;;;;10.77;94.02;101497.69;5115433;28;20023;-37
2023/05/01 05:03:28;;;;;;;4.07;2.57;;;;;;;10.73;94.00;101489.16;5116394;28;20024;-37
2023/05/01 05:05:54;;;;;;;9.30;3.50;;;;;;;10.69;93.23;101489.84;5115880;27;20333;-37
2023/05/01 05:08:19;;;;;;;6.15;2.80;;;;;;;10.60;93.46;101488.44;5116523;28;20043;-37
2023/05/01 05:10:44;;;;;;;5.43;3.23;;;;;;;10.60;93.55;101496.53;5116431;27;20058;-37
2023/05/01 05:13:10;;;;;;;7.47;2.60;;;;;;;10.55;93.08;101484.50;5116444;28;20028;-37
2023/05/01 05:15:35;;;;;;;7.38;2.78;;;;;;;10.62;93.97;101489.03;5116710;28;20387;-37
2023/05/01 05:18:00;;;;;;;6.23;2.83;;;;;;;10.50;93.94;101478.91;5115604;28;20490;-37
2023/05/01 05:20:26;;;;;;;5.57;3.00;;;;;;;10.56;93.97;101490.72;5115523;27;20015;-37
2023/05/01 05:22:51;;;;;;;3.37;2.57;;;;;;;10.56;94.54;101486.16;5116019;28;20272;-37
2023/05/01 05:25:17;;;;;;;3.53;2.80;;;;;;;10.59;94.53;101482.19;5116074;28;20024;-37
2023/05/01 05:27:42;;;;;;;4.07;2.70;;;;;;;10.62;94.83;101484.44;5115327;27;20019;-37
2023/05/01 05:30:09;;;;;;;5.45;2.90;;;;;;;10.52;95.02;101493.03;5116392;28;20077;-37
2023/05/01 05:32:34;;;;;;;4.55;2.88;;;;;;;10.51;95.54;101488.66;5115118;28;20352;-37
2023/05/01 05:35:00;;;;;;;6.82;3.22;;;;;;;10.44;95.12;101470.78;5115587;28;20020;-37
2023/05/01 05:37:25;;;;;;;4.80;3.10;;;;;;;10.56;95.43;101488.03;5115127;28;20045;-38
2023/05/01 05:39:51;;;;;;;5.05;2.90;;;;;;;10.54;94.69;101490.94;5115617;28;20023;-35
2023/05/01 05:42:17;;;;;;;8.68;3.72;;;;;;;10.55;94.69;101486.38;5115388;28;20026;-35
2023/05/01 05:44:42;;;;;;;4.97;3.27;;;;;;;10.64;95.65;101478.81;5115082;27;20027;-35
2023/05/01 05:47:07;;;;;;;5.37;3.20;;;;;;;10.70;95.68;101469.84;5115812;28;20265;-35
2023/05/01 05:49:33;;;;;;;5.53;3.47;;;;;;;10.80;94.82;101476.44;5114976;28;20038;-36
2023/05/01 05:51:58;;;;;;;5.20;3.33;;;;;;;10.81;94.59;101477.28;5115145;28;20265;-36
2023/05/01 05:54:23;;;;;;;4.40;3.23;;;;;;;10.69;93.61;101469.03;5115054;28;20023;-36
2023/05/01 05:56:49;;;;;;;7.03;3.40;;;;;;;10.88;94.91;101480.75;5115174;28;20019;-36
2023/05/01 05:59:14;;;;;;;9.07;3.97;;;;;;;10.90;93.89;101480.56;5115504;28;20098;-36
2023/05/01 06:01:41;;;;;;;4.43;3.30;;;;;;;10.95;94.27;101473.44;5114746;28;20130;-36
2023/05/01 06:04:07;;;;;;;5.80;3.20;;;;;;;10.93;93.35;101478.25;5116030;28;20016;-36
2023/05/01 06:06:33;;;;;;;5.60;3.25;;;;;;;11.07;94.31;101471.69;5115429;28;20418;-36
2023/05/01 06:08:59;;;;;;;7.18;3.50;;;;;;;11.15;94.12;101467.06;5114538;28;20102;-36
2023/05/01 06:11:24;;;;;;;8.80;3.40;;;;;;;11.17;92.86;101459.53;5115141;28;20024;-36
2023/05/01 06:13:50;;;;;;;8.15;4.10;;;;;;;11.18;92.71;101472.88;5114674;28;20019;-36
2023/05/01 06:16:15;;;;;;;5.90;3.30;;;;;;;11.27;93.05;101476.97;5114694;28;20027;-36
2023/05/01 06:18:41;;;;;;;5.53;3.22;;;;;;;11.21;91.77;101479.72;5114670;28;20276;-36
2023/05/01 06:21:06;;;;;;;10.47;3.60;;;;;;;11.27;92.46;101476.97;5114586;28;20020;-36
2023/05/01 06:23:33;;;;;;;7.95;3.72;;;;;;;11.34;94.36;101477.75;5114216;28;20019;-36
2023/05/01 06:25:59;;;;;;;5.75;3.60;;;;;;;11.28;92.28;101466.97;5114530;28;20020;-36
2023/05/01 06:28:24;;;;;;;7.40;3.80;;;;;;;11.21;91.23;101474.31;5114461;28;20444;-36
2023/05/01 06:30:49;;;;;;;7.57;3.77;;;;;;;11.35;93.78;101478.56;5114462;28;20045;-36
2023/05/01 06:33:15;;;;;;;5.70;3.60;;;;;;;11.31;93.09;101463.81;5114646;28;20269;-36
2023/05/01 06:35:40;;;;;;;8.50;3.80;;;;;;;11.55;93.14;101475.69;5114477;28;20106;-36
2023/05/01 06:38:05;;;;;;;5.53;3.45;;;;;;;11.65;92.96;101476.00;5115166;28;20076;-36
2023/05/01 06:40:33;;;;;;;5.43;3.67;;;;;;;11.72;91.63;101471.38;5114244;28;20024;-36
2023/05/01 06:42:59;;;;;;;5.32;3.95;;;;;;;11.75;93.85;101473.63;5114194;28;20120;-36
2023/05/01 06:45:25;;;;;;;5.10;3.30;;;;;;;11.84;92.86;101471.50;5114326;28;20047;-36
2023/05/01 06:47:50;;;;;;;7.43;3.92;;;;;;;11.84;91.52;101466.91;5114161;28;20027;-36
2023/05/01 06:50:15;;;;;;;7.37;4.07;;;;;;;11.85;91.55;101470.44;5114828;28;20039;-36
2023/05/01 06:52:41;;;;;;;8.45;3.80;;;;;;;11.84;91.62;101458.75;5113830;28;20273;-36
2023/05/01 06:55:07;;;;;;;4.87;4.10;;;;;;;11.94;92.90;101452.81;5114375;28;20030;-36
2023/05/01 06:57:32;;;;;;;8.48;4.40;;;;;;;12.01;90.98;101461.72;5114042;28;20266;-37
2023/05/01 06:59:57;;;;;;;4.90;3.60;;;;;;;11.95;91.57;101443.63;5114036;28;20051;-37
2023/05/01 07:02:23;;;;;;;6.20;4.20;;;;;;;12.22;92.98;101467.75;5114353;28;20043;-36
2023/05/01 07:04:48;;;;;;;6.50;3.93;;;;;;;12.23;91.94;101462.09;5113096;28;20262;-37
2023/05/01 07:07:13;;;;;;;8.53;4.57;;;;;;;12.20;89.62;101457.13;5113672;28;20314;-36
2023/05/01 07:09:40;;;;;;;5.73;4.10;;;;;;;12.26;89.61;101466.25;5114109;28;20289;-36
2023/05/01 07:12:05;;;;;;;8.68;4.50;;;;;;;12.36;90.65;101458.41;5114176;28;20356;-36
2023/05/01 07:14:31;;;;;;;7.43;4.40;;;;;;;12.34;89.29;101460.50;5114514;28;20426;-36
2023/05/01 07:16:57;;;;;;;6.97;4.45;;;;;;;12.33;90.37;101464.25;5114485;28;20030;-36
2023/05/01 07:19:22;;;;;;;8.68;4.35;;;;;;;12.27;91.03;101460.59;5113843;28;20028;-37
2023/05/01 07:21:48;;;;;;;9.30;4.22;;;;;;;12.30;89.80;101459.31;5115271;28;20026;-37
2023/05/01 07:24:13;;;;;;;9.85;4.40;;;;;;;12.39;89.60;101463.34;5117981;28;20142;-36
2023/05/01 07:26:39;;;;;;;7.47;5.10;;;;;;;12.49;90.43;101450.09;5118584;28;20028;-37
2023/05/01 07:29:04;;;;;;;8.13;4.53;;;;;;;12.53;88.91;101453.97;5117986;28;20742;-37
2023/05/01 07:31:29;;;;;;;7.15;4.43;;;;;;;12.70;90.14;101458.78;5117914;28;20027;-38
2023/05/01 07:33:55;;;;;;;8.10;4.43;;;;;;;12.83;91.18;101453.16;5118061;28;20062;-35
2023/05/01 07:36:21;;;;;;;6.57;4.32;;;;;;;12.86;89.23;101464.38;5117534;27;20036;-35
2023/05/01 07:38:47;;;;;;;5.47;4.25;;;;;;;12.86;88.82;101464.38;5117968;28;20019;-37
2023/05/01 07:41:13;;;;;;;5.60;4.32;;;;;;;13.00;89.03;101459.59;5117940;28;20360;-36
2023/05/01 07:43:38;;;;;;;;;;;;;;;13.20;88.60;101461.19;5118681;27;20020;-36
2023/05/01 07:46:04;;;;;;;6.47;4.03;;;;;;;13.08;87.23;101445.69;5117892;28;19907;-36
2023/05/01 07:48:31;;;;;;;6.55;4.85;;;;;;;13.06;86.04;101465.97;5117875;28;20253;-36
2023/05/01 07:51:00;;;;;;;5.97;4.47;;;;;;;13.29;87.25;101462.53;5117131;28;20024;-36
2023/05/01 07:53:25;;;;;;;7.97;4.68;;;;;;;13.49;87.04;101465.72;5117385;28;20012;-36
2023/05/01 07:55:51;;;;;;;;;;;;;;;13.70;86.92;101467.03;5117778;28;20020;-36
2023/05/01 07:58:16;;;;;;;6.47;4.30;;;;;;;13.77;85.59;101465.03;5117598;28;19904;-36
2023/05/01 08:00:43;;;;;;;6.53;4.88;;;;;;;13.85;83.65;101469.25;5118103;28;20705;-36
2023/05/01 08:03:09;;;;;;;8.00;4.68;;;;;;;13.82;84.87;101456.16;5117263;28;20075;-36
2023/05/01 08:05:34;;;;;;;;;;;;;;;14.01;84.56;101465.03;5118247;27;20100;-36
2023/05/01 08:08:00;;;;;;;7.87;4.23;;;;;;;13.72;82.75;101458.66;5117212;28;20336;-36
2023/05/01 08:10:26;;;;;;;;;;;;;;;13.94;84.63;101469.75;5117375;28;20019;-36
2023/05/01 08:12:51;;;;;;;7.13;4.80;;;;;;;14.00;83.83;101466.06;5116802;28;19969;-36
2023/05/01 08:15:16;;;;;;;;;;;;;;;14.26;84.99;101464.72;5118017;28;20436;-36
2023/05/01 08:17:42;;;;;;;6.70;4.70;;;;;;;14.35;81.74;101450.50;5117000;28;19956;-36
2023/05/01 08:20:07;;;;;;;;;;;;;;;14.66;84.11;101459.31;5117852;28;20053;-36
2023/05/01 08:22:33;;;;;;;7.22;4.25;;;;;;;14.52;79.89;101441.59;5116632;27;19908;-36
2023/05/01 08:24:58;;;;;;;6.05;4.40;;;;;;;14.68;80.85;101451.69;5116957;28;20030;-36
2023/05/01 08:27:23;;;;;;;;;;;;;;;14.92;81.73;101446.97;5116920;28;20012;-36
2023/05/01 08:29:49;;;;;;;7.47;4.07;;;;;;;14.91;78.01;101439.88;5117038;28;19998;-36
2023/05/01 08:32:17;;;;;;;7.57;4.45;;;;;;;15.10;77.47;101438.59;5117003;28;20030;-36
2023/05/01 08:34:43;;;;;;;6.65;4.45;;;;;;;15.15;78.48;101437.84;5117506;28;20103;-36
2023/05/01 08:37:08;;;;;;;5.53;4.03;;;;;;;15.35;77.47;101449.06;5116953;28;20116;-36
2023/05/01 08:39:34;;;;;;;5.50;4.40;;;;;;;15.52;76.91;101435.44;5116313;27;20031;-36
2023/05/01 08:41:59;;;;;;;7.15;4.40;;;;;;;15.62;74.63;101435.59;5116745;28;20030;-37
2023/05/01 08:44:25;;;;;;;5.53;4.13;;;;;;;15.85;75.96;101441.94;5117516;28;20019;-36
2023/05/01 08:46:56;;;;;;;6.30;3.83;;;;;;;16.00;76.10;101433.94;5117070;28;20485;-36
2023/05/01 08:49:23;;;;;;;6.03;4.20;;;;;;;16.01;74.08;101435.63;5116360;28;20418;-36
2023/05/01 08:51:51;;;;;;;4.90;3.67;;;;;;;16.09;75.00;101445.25;5115474;28;20100;-36
2023/05/01 08:54:19;;;;;;;6.82;4.35;;;;;;;16.05;72.98;101435.94;5116242;28;20019;-37
2023/05/01 08:56:46;;;;;;;6.10;4.20;;;;;;;16.16;74.93;101441.28;5116531;28;20560;-37
2023/05/01 08:59:13;;;;;;;4.65;4.13;;;;;;;16.17;74.32;101448.38;5116232;28;20019;-37
2023/05/01 09:01:40;;;;;;;8.52;4.05;;;;;;;16.14;73.36;101439.88;5116929;28;20052;-37
2023/05/01 09:04:07;;;;;;;6.97;4.00;;;;;;;16.07;72.87;101445.53;5115864;28;20484;-37
2023/05/01 09:06:33;;;;;;;6.93;4.22;;;;;;;16.13;75.06;101441.78;5115830;28;20062;-37
2023/05/01 09:08:58;;;;;;;4.72;4.15;;;;;;;16.20;72.99;101438.84;5115974;28;20110;-37
2023/05/01 09:11:24;;;;;;;;;;;;;;;16.36;74.20;101445.34;5117325;27;20027;-37
2023/05/01 09:13:51;;;;;;;6.10;4.00;;;;;;;16.31;75.57;101456.19;5115952;28;20381;-37
2023/05/01 09:16:17;;;;;;;6.22;3.90;;;;;;;16.27;72.19;101438.66;5115556;28;20463;-37
2023/05/01 09:18:42;;;;;;;;;;;;;;;16.45;74.17;101450.09;5116202;28;20028;-37
2023/05/01 09:21:07;;;;;;;4.70;3.80;;;;;;;16.49;72.65;101447.66;5115955;28;19908;-37
2023/05/01 09:23:36;;;;;;;;;;;;;;;16.71;72.82;101450.38;5116980;28;20030;-37
2023/05/01 09:26:04;;;;;;;6.45;3.65;;;;;;;16.69;69.63;101436.16;5115688;28;19903;-37
2023/05/01 09:28:59;;;;;;;5.63;3.92;;;;;;;16.84;71.38;101450.00;5115611;28;20020;-37
2023/05/01 09:31:31;;;;;;;5.95;3.95;;;;;;;16.79;70.01;101447.22;5098209;27;20050;-37
2023/05/01 09:33:59;;;;;;;5.47;4.10;;;;;;;16.62;69.54;101441.78;5115347;28;20091;-36
2023/05/01 09:36:29;;;;;;;5.72;4.10;;;;;;;16.75;70.04;101453.44;5115833;28;20020;-37
2023/05/01 09:39:01;;;;;;;4.75;3.85;;;;;;;16.91;70.34;101444.31;5115758;28;20380;-37
2023/05/01 09:41:27;;;;;;;5.15;3.78;;;;;;;17.32;70.95;101447.38;5115610;28;20020;-37
2023/05/01 09:43:54;;;;;;;;;;;;;;;17.58;70.48;101449.25;5115247;28;20030;-37
2023/05/01 09:46:21;;;;;;;4.88;4.20;;;;;;;17.52;67.80;101444.84;5115667;28;20003;-37
2023/05/01 09:48:54;;;;;;;5.80;3.97;;;;;;;17.63;68.66;101446.53;5115246;28;20023;-37
2023/05/01 09:51:27;;;;;;;5.20;4.20;;;;;;;17.70;67.36;101438.91;5116055;28;20023;-37
2023/05/01 09:54:01;;;;;;;4.57;3.88;;;;;;;17.86;66.46;101449.97;5114832;28;20069;-37
2023/05/01 09:56:28;;;;;;;6.47;3.92;;;;;;;18.00;66.16;101446.50;5115622;28;20030;-37
2023/05/01 09:58:55;;;;;;;6.18;4.25;;;;;;;18.11;66.25;101443.84;5115637;28;20031;-37
2023/05/01 10:01:38;;;;;;;5.22;4.10;;;;;;;18.30;68.40;101438.69;5114669;28;20043;-37
2023/05/01 10:04:03;;;;;;;5.10;3.92;;;;;;;18.22;66.14;101443.59;5115812;28;20027;-37
2023/05/01 10:06:28;;;;;;;;;;;;;;;18.35;68.17;101441.44;5115585;28;20027;-37
2023/05/01 10:08:54;;;;;;;5.45;3.70;;;;;;;18.18;66.56;101447.13;5115103;28;19912;-37
2023/05/01 10:11:20;;;;;;;;;;;;;;;18.33;67.78;101443.63;5115282;28;20020;-37
2023/05/01 10:14:03;;;;;;;4.80;3.95;;;;;;;18.09;67.80;101432.31;5114752;28;19961;-38
2023/05/01 10:16:29;;;;;;;4.85;3.90;;;;;;;18.03;69.27;101450.63;5115848;28;20023;-37
2023/05/01 10:18:57;;;;;;;;;;;;;;;18.10;67.70;101447.63;5115124;28;20031;-37
2023/05/01 10:21:22;;;;;;;;;;;;;;;18.13;65.31;101444.38;5115317;28;19907;-38
2023/05/01 10:23:47;;;;;;;6.35;3.97;;;;;;;18.09;65.15;101451.47;5114657;28;20324;-38
2023/05/01 10:26:14;;;;;;;;;;;;;;;18.27;66.63;101451.81;5115086;28;20455;-38
2023/05/01 10:28:41;;;;;;;4.55;3.38;;;;;;;18.31;64.63;101457.59;5114511;28;19914;-38
2023/05/01 10:31:07;;;;;;;4.68;3.72;;;;;;;18.42;66.59;101452.97;5114499;28;20033;-38
2023/05/01 10:33:33;;;;;;;7.82;3.88;;;;;;;18.42;65.16;101451.06;5114436;28;20031;-36
2023/05/01 10:35:59;;;;;;;;;;;;;;;18.62;65.30;101458.50;5115094;28;20031;-36
2023/05/01 10:38:32;;;;;;;4.95;3.88;;;;;;;18.35;64.49;101449.66;5114075;28;20367;-36
2023/05/01 10:40:58;;;;;;;5.95;4.10;;;;;;;18.27;65.22;101440.06;5114308;28;20023;-37
2023/05/01 10:43:25;;;;;;;;;;;;;;;18.45;65.30;101458.75;5114683;28;20368;-37
2023/05/01 10:45:51;;;;;;;4.37;3.80;;;;;;;18.25;65.53;101451.28;5114318;28;19941;-36
2023/05/01 10:48:38;;;;;;;6.32;4.32;;;;;;;18.52;67.07;101453.00;5114608;28;20026;-37
2023/05/01 10:51:16;;;;;;;;;;;;;;;18.77;66.28;101455.84;5115587;28;20076;-37
2023/05/01 10:54:05;;;;;;;6.55;3.53;;;;;;;18.73;64.49;101451.16;5113875;28;19973;-36
2023/05/01 10:56:30;;;;;;;5.13;3.78;;;;;;;18.67;62.93;101455.78;5113761;28;20398;-36
2023/05/01 10:58:56;;;;;;;;;;;;;;;18.83;64.50;101456.66;5114877;28;20114;-36
2023/05/01 11:01:41;;;;;;;5.97;3.80;;;;;;;18.59;65.29;101460.97;5114651;28;19912;-36
2023/05/01 11:04:27;;;;;;;8.50;4.38;;;;;;;18.60;63.99;101459.91;5114645;28;20031;-37
2023/05/01 11:07:04;;;;;;;6.30;4.43;;;;;;;18.43;64.68;101454.63;5113729;28;20027;-36
2023/05/01 11:09:40;;;;;;;4.30;3.80;;;;;;;18.56;63.87;101461.53;5114717;28;20015;-36
2023/05/01 11:12:07;;;;;;;7.18;4.10;;;;;;;18.64;62.92;101458.22;5114880;28;20027;-36
2023/05/01 11:14:51;;;;;;;4.55;3.42;;;;;;;18.76;62.60;101467.06;5113705;28;20020;-36
2023/05/01 11:17:41;;;;;;;4.95;3.75;;;;;;;18.83;60.73;101469.53;5113649;28;20031;-36
2023/05/01 11:20:07;;;;;;;5.00;3.50;;;;;;;18.71;60.33;101454.19;5113772;28;20359;-36
2023/05/01 11:22:33;;;;;;;6.05;3.83;;;;;;;18.80;59.21;101461.88;5114204;28;20057;-37
2023/05/01 11:25:05;;;;;;;5.70;3.97;;;;;;;18.78;59.58;101465.69;5113810;28;20024;-37
2023/05/01 11:27:30;;;;;;;4.95;3.67;;;;;;;18.76;57.61;101467.06;5113834;28;20019;-36
2023/05/01 11:29:57;;;;;;;;;;;;;;;18.90;58.23;101465.47;5114475;28;20023;-36
2023/05/01 11:32:26;;;;;;;4.60;3.45;;;;;;;18.71;58.65;101467.06;5113512;28;19903;-36
2023/05/01 11:34:52;;;;;;;4.38;3.40;;;;;;;18.85;58.60;101462.72;5113807;28;20043;-37